Time;durP1;ratioP1;P1;durP2;ratioP2;P2;SDS_P1;SDS_P2;PMS_P1;PMS_P2;Temp;Humidity;BMP_temperature;BMP_pressure;BME280_temperature;BME280_humidity;BME280_pressure;Samples;Min_cycle;Max_cycle;Signal;HPM_P1;HPM_P2
2024/03/03 00:01:53;;;;;;;28.85;8.10;;;11.30;97.70;;;;;;5050717;28;20383;-52
2024/03/03 00:04:19;;;;;;;24.95;7.85;;;11.20;97.70;;;;;;5050781;28;20032;-52
2024/03/03 00:06:44;;;;;;;22.27;7.70;;;11.20;97.70;;;;;;5050967;28;20021;-52
2024/03/03 00:09:10;;;;;;;21.92;6.80;;;11.20;97.70;;;;;;5051023;28;20021;-52
2024/03/03 00:11:36;;;;;;;25.13;7.60;;;11.20;97.80;;;;;;5017744;28;20025;-52
2024/03/03 00:14:01;;;;;;;18.52;6.70;;;11.20;97.80;;;;;;5051078;28;20047;-52
2024/03/03 00:16:27;;;;;;;22.08;7.28;;;11.10;97.80;;;;;;5068795;28;20037;-52
2024/03/03 00:18:53;;;;;;;32.83;7.05;;;11.10;97.80;;;;;;5050919;28;20025;-52
2024/03/03 00:21:19;;;;;;;25.75;7.45;;;11.10;97.80;;;;;;5034287;28;20044;-52
2024/03/03 00:23:45;;;;;;;18.83;6.57;;;11.10;97.80;;;;;;5050725;28;20021;-52
2024/03/03 00:26:12;;;;;;;24.50;6.68;;;11.10;97.90;;;;;;5068651;28;20032;-52
2024/03/03 00:28:37;;;;;;;23.90;7.40;;;11.10;97.90;;;;;;5033971;28;20031;-52
2024/03/03 00:31:03;;;;;;;26.33;7.45;;;11.00;97.90;;;;;;5033845;28;20112;-52
2024/03/03 00:33:29;;;;;;;19.70;5.88;;;11.00;98.20;;;;;;5068366;28;20025;-52
2024/03/03 00:35:54;;;;;;;21.45;7.35;;;11.00;97.90;;;;;;5050405;28;20048;-52
2024/03/03 00:38:20;;;;;;;14.00;5.75;;;11.00;98.00;;;;;;5050428;28;20029;-52
2024/03/03 00:40:46;;;;;;;26.38;6.70;;;11.00;98.00;;;;;;5067744;28;20060;-52
2024/03/03 00:43:11;;;;;;;20.83;7.10;;;11.00;98.00;;;;;;5050125;28;20048;-52
2024/03/03 00:45:37;;;;;;;19.48;6.60;;;11.00;98.00;;;;;;5050414;28;20037;-52
2024/03/03 00:48:03;;;;;;;16.77;6.47;;;10.90;97.90;;;;;;5068071;28;20053;-52
2024/03/03 00:50:28;;;;;;;22.05;6.38;;;10.90;98.00;;;;;;5050291;28;20029;-52
2024/03/03 00:52:54;;;;;;;20.92;6.43;;;10.90;98.00;;;;;;5050106;28;20097;-52
2024/03/03 00:55:23;;;;;;;16.63;6.00;;;10.90;98.00;;;;;;5049953;28;20055;-52
2024/03/03 00:57:49;;;;;;;20.55;6.30;;;10.90;98.00;;;;;;5050286;28;20036;-52
2024/03/03 01:00:15;;;;;;;18.02;6.50;;;10.90;98.10;;;;;;5050049;28;20041;-52
2024/03/03 01:02:41;;;;;;;18.20;6.00;;;10.90;98.00;;;;;;5067735;28;20029;-52
2024/03/03 01:05:08;;;;;;;19.17;6.35;;;10.90;98.10;;;;;;5033123;28;20064;-52
2024/03/03 01:07:34;;;;;;;16.02;6.57;;;10.90;98.10;;;;;;5067587;28;20023;-52
2024/03/03 01:09:59;;;;;;;19.70;6.60;;;10.80;98.10;;;;;;5033230;28;20077;-52
2024/03/03 01:12:25;;;;;;;23.35;6.75;;;10.80;98.10;;;;;;5067603;28;20080;-52
2024/03/03 01:14:51;;;;;;;21.13;6.32;;;10.80;98.10;;;;;;5048665;28;20029;-52
2024/03/03 01:17:16;;;;;;;17.13;5.70;;;10.80;98.10;;;;;;5033550;28;20028;-52
2024/03/03 01:19:42;;;;;;;14.57;5.70;;;10.80;98.00;;;;;;5049564;28;20033;-52
2024/03/03 01:22:08;;;;;;;24.65;6.35;;;10.80;98.00;;;;;;5067140;28;20032;-52
2024/03/03 01:24:33;;;;;;;17.38;6.50;;;10.80;98.00;;;;;;5049490;28;20029;-52
2024/03/03 01:27:00;;;;;;;15.57;6.32;;;10.80;98.00;;;;;;5049522;28;20032;-52
2024/03/03 01:29:27;;;;;;;16.05;5.28;;;10.80;98.10;;;;;;5066959;28;20024;-52
2024/03/03 01:31:52;;;;;;;18.15;5.88;;;10.80;98.20;;;;;;5049496;28;20020;-52
2024/03/03 01:34:18;;;;;;;15.15;5.05;;;10.70;98.10;;;;;;5049152;28;20028;-52
2024/03/03 01:36:44;;;;;;;20.45;5.93;;;10.70;98.10;;;;;;5049005;28;20032;-52
2024/03/03 01:39:09;;;;;;;15.02;5.43;;;10.70;98.10;;;;;;5049425;28;20032;-52
2024/03/03 01:41:35;;;;;;;18.60;5.88;;;10.70;98.20;;;;;;5049186;28;20055;-52
2024/03/03 01:44:01;;;;;;;15.82;6.10;;;10.70;98.10;;;;;;5049061;28;20033;-52
2024/03/03 01:46:27;;;;;;;16.58;5.25;;;10.70;98.20;;;;;;5048895;28;20028;-52
2024/03/03 01:48:53;;;;;;;15.55;5.82;;;10.70;98.20;;;;;;5032626;28;20021;-52
2024/03/03 01:51:19;;;;;;;12.35;5.80;;;10.60;98.20;;;;;;5032583;28;20028;-52
2024/03/03 01:53:48;;;;;;;15.05;5.28;;;10.70;98.20;;;;;;5049002;28;20025;-52
2024/03/03 01:56:13;;;;;;;17.15;5.70;;;10.60;98.10;;;;;;5049253;28;20059;-52
2024/03/03 01:58:39;;;;;;;15.35;5.15;;;10.60;98.20;;;;;;5032555;28;20459;-52
2024/03/03 02:01:05;;;;;;;18.83;5.22;;;10.60;98.30;;;;;;5032490;28;20049;-52
2024/03/03 02:03:30;;;;;;;13.45;6.18;;;10.60;98.30;;;;;;5048895;28;20104;-52
2024/03/03 02:05:56;;;;;;;15.88;5.50;;;10.60;98.30;;;;;;5032420;28;20067;-53
2024/03/03 02:08:21;;;;;;;19.42;6.00;;;10.60;98.30;;;;;;5032335;28;20098;-52
2024/03/03 02:10:47;;;;;;;17.98;5.45;;;10.60;98.30;;;;;;5015592;28;20060;-52
2024/03/03 02:13:13;;;;;;;12.02;5.30;;;10.60;98.30;;;;;;5066449;28;20021;-52
2024/03/03 02:15:38;;;;;;;12.02;5.43;;;10.60;98.30;;;;;;5048597;28;20040;-52
2024/03/03 02:18:04;;;;;;;19.85;5.93;;;10.60;98.30;;;;;;5015601;28;20096;-52
2024/03/03 02:20:30;;;;;;;13.70;5.65;;;10.50;98.30;;;;;;5066388;28;20071;-52
2024/03/03 02:22:55;;;;;;;12.57;5.32;;;10.60;98.40;;;;;;5048505;28;20021;-52
2024/03/03 02:25:21;;;;;;;12.00;5.18;;;10.50;98.40;;;;;;5066174;28;20085;-52
2024/03/03 02:27:46;;;;;;;15.20;5.90;;;10.50;98.40;;;;;;5031805;28;20032;-52
2024/03/03 02:30:12;;;;;;;15.70;5.28;;;10.60;98.40;;;;;;5031855;28;20025;-52
2024/03/03 02:32:38;;;;;;;13.18;4.88;;;10.50;98.30;;;;;;5031922;28;20184;-52
2024/03/03 02:35:04;;;;;;;14.73;5.72;;;10.50;98.30;;;;;;5066020;28;20509;-52
2024/03/03 02:37:29;;;;;;;15.57;5.40;;;10.50;98.30;;;;;;5048218;28;20037;-52
2024/03/03 02:39:55;;;;;;;9.13;5.03;;;10.50;98.30;;;;;;5048236;28;20059;-52
2024/03/03 02:42:20;;;;;;;10.43;5.07;;;10.50;98.40;;;;;;5065923;28;20018;-52
2024/03/03 02:44:46;;;;;;;13.57;5.60;;;10.50;98.40;;;;;;5065978;28;20047;-52
2024/03/03 02:47:12;;;;;;;11.80;5.43;;;10.50;98.50;;;;;;5048223;28;20021;-52
2024/03/03 02:49:37;;;;;;;16.92;5.82;;;10.50;98.40;;;;;;5048336;28;20049;-52
2024/03/03 02:52:03;;;;;;;9.43;5.38;;;10.50;98.40;;;;;;5047899;28;20483;-52
2024/03/03 02:54:29;;;;;;;15.88;6.13;;;10.50;98.40;;;;;;5065971;28;20152;-52
2024/03/03 02:56:55;;;;;;;14.88;5.63;;;10.50;98.40;;;;;;5065970;28;20061;-52
2024/03/03 02:59:20;;;;;;;10.90;5.22;;;10.40;98.40;;;;;;5047918;28;20032;-52
2024/03/03 03:01:46;;;;;;;17.27;5.47;;;10.50;98.40;;;;;;5047876;28;20036;-52
2024/03/03 03:04:11;;;;;;;9.52;5.50;;;10.40;98.40;;;;;;5015107;28;20033;-52
2024/03/03 03:06:37;;;;;;;11.25;5.22;;;10.40;98.40;;;;;;5047834;28;20083;-52
2024/03/03 03:09:03;;;;;;;12.68;5.40;;;10.40;98.40;;;;;;5047790;28;20017;-52
2024/03/03 03:11:29;;;;;;;11.43;5.18;;;10.40;98.40;;;;;;5048051;28;20118;-52
2024/03/03 03:13:55;;;;;;;13.85;5.25;;;10.40;98.40;;;;;;5015495;28;20083;-52
2024/03/03 03:16:21;;;;;;;12.13;4.63;;;10.40;98.40;;;;;;5031502;28;20033;-52
2024/03/03 03:18:46;;;;;;;13.15;5.00;;;10.40;98.50;;;;;;5065801;28;20029;-52
2024/03/03 03:21:12;;;;;;;13.18;5.07;;;10.40;98.50;;;;;;5031290;28;20056;-52
2024/03/03 03:23:37;;;;;;;12.57;6.07;;;10.40;98.50;;;;;;5065719;28;20040;-52
2024/03/03 03:26:03;;;;;;;8.93;5.00;;;10.40;98.50;;;;;;5047971;28;20056;-52
2024/03/03 03:28:29;;;;;;;15.73;6.15;;;10.40;98.50;;;;;;5031553;28;20080;-52
2024/03/03 03:30:54;;;;;;;11.35;4.80;;;10.40;98.50;;;;;;5031512;28;20033;-52
2024/03/03 03:33:20;;;;;;;10.75;5.47;;;10.40;98.60;;;;;;5048037;28;20029;-52
2024/03/03 03:35:46;;;;;;;11.68;5.45;;;10.40;98.50;;;;;;5065323;28;20036;-52
2024/03/03 03:38:12;;;;;;;9.85;4.80;;;10.40;98.50;;;;;;5050880;28;20055;-52
2024/03/03 03:40:38;;;;;;;12.07;5.47;;;10.30;98.50;;;;;;5069420;28;20037;-52
2024/03/03 03:43:05;;;;;;;10.75;5.28;;;10.30;98.50;;;;;;5069179;28;20024;-52
2024/03/03 03:45:31;;;;;;;10.82;5.38;;;10.30;98.60;;;;;;5035298;28;20041;-52
2024/03/03 03:47:57;;;;;;;13.07;5.47;;;10.30;98.60;;;;;;5069405;28;20047;-52
2024/03/03 03:50:23;;;;;;;13.60;5.43;;;10.30;98.60;;;;;;5034981;28;20025;-52
2024/03/03 03:52:49;;;;;;;13.00;5.38;;;10.30;98.90;;;;;;5069228;28;20021;-52
2024/03/03 03:55:14;;;;;;;12.75;5.28;;;10.30;98.50;;;;;;5068932;28;20037;-52
2024/03/03 03:57:40;;;;;;;11.80;5.30;;;10.30;98.60;;;;;;5051142;28;20024;-52
2024/03/03 04:00:06;;;;;;;11.38;5.50;;;10.30;98.60;;;;;;5051160;28;20384;-52
2024/03/03 04:02:32;;;;;;;10.93;4.88;;;10.30;98.60;;;;;;5034671;28;20029;-52
2024/03/03 04:04:58;;;;;;;9.15;4.85;;;10.30;98.60;;;;;;5051127;28;20041;-52
2024/03/03 04:07:23;;;;;;;8.68;4.93;;;10.30;98.60;;;;;;5034547;28;20017;-52
2024/03/03 04:09:49;;;;;;;12.85;5.65;;;10.30;98.50;;;;;;5068820;28;20433;-52
2024/03/03 04:12:15;;;;;;;10.85;5.00;;;10.30;98.60;;;;;;5068742;28;20100;-53
2024/03/03 04:14:40;;;;;;;12.23;5.38;;;10.30;98.60;;;;;;5068708;28;20112;-52
2024/03/03 04:17:06;;;;;;;12.35;5.35;;;10.30;98.50;;;;;;5050992;28;20039;-53
2024/03/03 04:19:32;;;;;;;12.32;5.35;;;10.30;98.60;;;;;;5068347;28;20025;-52
2024/03/03 04:21:58;;;;;;;14.63;5.18;;;10.20;98.50;;;;;;5034163;28;20128;-53
2024/03/03 04:24:23;;;;;;;12.27;5.93;;;10.30;98.60;;;;;;5050189;28;20029;-52
2024/03/03 04:26:49;;;;;;;10.48;4.82;;;10.20;98.60;;;;;;5068583;28;20352;-53
2024/03/03 04:29:14;;;;;;;13.75;5.47;;;10.20;98.60;;;;;;5068588;28;20021;-52
2024/03/03 04:31:44;;;;;;;15.57;5.30;;;10.20;98.90;;;;;;5050652;28;20029;-52
2024/03/03 04:34:10;;;;;;;15.15;5.50;;;10.20;98.60;;;;;;5050597;28;20032;-52
2024/03/03 04:36:36;;;;;;;10.20;5.00;;;10.20;98.60;;;;;;5033759;28;20037;-52
2024/03/03 04:39:03;;;;;;;10.90;5.22;;;10.20;98.60;;;;;;5050374;28;20029;-52
2024/03/03 04:41:30;;;;;;;7.57;4.57;;;10.20;98.60;;;;;;5068393;28;20029;-52
2024/03/03 04:43:56;;;;;;;10.98;5.32;;;10.20;98.60;;;;;;5050332;28;20063;-52
2024/03/03 04:46:21;;;;;;;9.48;4.53;;;10.20;98.60;;;;;;5050345;28;20025;-52
2024/03/03 04:48:47;;;;;;;12.63;5.55;;;10.20;98.60;;;;;;5050179;28;20032;-52
2024/03/03 04:51:13;;;;;;;12.98;5.55;;;10.20;98.60;;;;;;5067929;28;20036;-53
2024/03/03 04:53:39;;;;;;;11.43;5.10;;;10.20;98.70;;;;;;5050156;28;20021;-52
2024/03/03 04:56:05;;;;;;;10.85;5.05;;;10.20;98.60;;;;;;5033547;28;20120;-52
2024/03/03 04:58:30;;;;;;;8.52;4.45;;;10.20;98.70;;;;;;5067982;28;20025;-52
2024/03/03 05:00:56;;;;;;;10.50;4.88;;;10.10;98.70;;;;;;5033546;28;20037;-52
2024/03/03 05:03:24;;;;;;;11.10;5.10;;;10.10;98.70;;;;;;5033369;28;20055;-52
2024/03/03 05:05:50;;;;;;;10.98;5.00;;;10.10;98.70;;;;;;5067924;28;20025;-52
2024/03/03 05:08:16;;;;;;;10.52;5.22;;;10.10;98.70;;;;;;5049852;28;20021;-52
2024/03/03 05:10:42;;;;;;;11.85;5.55;;;10.10;98.70;;;;;;5067587;28;20037;-52
2024/03/03 05:13:07;;;;;;;10.18;5.03;;;10.10;98.80;;;;;;5033204;28;20441;-53
2024/03/03 05:15:33;;;;;;;9.65;4.90;;;10.10;98.80;;;;;;5049680;28;20029;-52
2024/03/03 05:17:59;;;;;;;10.15;5.45;;;10.10;98.80;;;;;;5049659;28;20394;-52
2024/03/03 05:20:25;;;;;;;10.02;5.50;;;10.10;99.00;;;;;;5033304;28;20040;-52
2024/03/03 05:22:51;;;;;;;10.70;5.20;;;10.00;98.80;;;;;;5049534;28;20021;-52
2024/03/03 05:25:16;;;;;;;7.90;4.80;;;10.10;98.80;;;;;;5067254;28;20029;-52
2024/03/03 05:27:42;;;;;;;9.75;4.93;;;10.00;98.80;;;;;;5049469;28;20452;-52
2024/03/03 05:30:08;;;;;;;11.45;5.18;;;10.00;98.80;;;;;;5033002;28;20123;-52
2024/03/03 05:32:33;;;;;;;8.23;5.10;;;10.10;98.80;;;;;;5067125;28;20052;-52
2024/03/03 05:34:59;;;;;;;13.32;5.60;;;10.00;98.70;;;;;;5049159;28;20051;-52
2024/03/03 05:37:25;;;;;;;10.55;5.55;;;10.10;98.70;;;;;;5049357;28;20036;-53
2024/03/03 05:39:50;;;;;;;7.20;5.07;;;10.10;98.80;;;;;;5067316;28;20172;-52
2024/03/03 05:42:17;;;;;;;9.93;5.32;;;10.10;98.70;;;;;;5049192;28;20039;-52
2024/03/03 05:44:42;;;;;;;9.07;5.10;;;10.00;98.70;;;;;;5032958;28;20037;-52
2024/03/03 05:47:09;;;;;;;9.70;5.47;;;10.10;98.80;;;;;;5049206;28;20045;-52
2024/03/03 05:49:36;;;;;;;10.35;5.10;;;10.00;98.80;;;;;;5032623;28;20043;-52
2024/03/03 05:52:02;;;;;;;6.25;4.75;;;10.00;98.70;;;;;;5050131;28;20021;-52
2024/03/03 05:54:28;;;;;;;10.13;5.47;;;10.00;98.70;;;;;;5049688;28;20037;-52
2024/03/03 05:56:53;;;;;;;10.65;4.75;;;10.00;98.80;;;;;;5048866;28;20036;-52
2024/03/03 05:59:19;;;;;;;8.57;5.10;;;10.00;98.80;;;;;;5066256;28;20037;-52
2024/03/03 06:01:48;;;;;;;8.32;4.85;;;10.00;98.80;;;;;;5066377;28;20041;-52
2024/03/03 06:04:20;;;;;;;8.40;4.72;;;10.00;98.80;;;;;;5033200;28;20047;-52
2024/03/03 06:06:45;;;;;;;10.25;5.32;;;10.00;98.80;;;;;;5048977;28;20032;-52
2024/03/03 06:09:12;;;;;;;9.35;5.28;;;9.90;98.80;;;;;;5015767;28;20042;-52
2024/03/03 06:11:38;;;;;;;7.95;5.15;;;9.90;98.80;;;;;;5032693;28;20031;-52
2024/03/03 06:14:06;;;;;;;9.18;5.32;;;9.90;98.80;;;;;;5066625;28;20112;-52
2024/03/03 06:16:32;;;;;;;8.18;5.25;;;9.90;98.80;;;;;;5032135;28;20051;-52
2024/03/03 06:18:58;;;;;;;8.55;4.50;;;9.90;98.80;;;;;;5048742;28;20044;-52
2024/03/03 06:21:23;;;;;;;10.18;5.45;;;9.90;98.80;;;;;;5066651;28;20029;-52
2024/03/03 06:23:49;;;;;;;8.00;4.75;;;9.90;98.90;;;;;;5031890;28;20101;-52
2024/03/03 06:26:15;;;;;;;11.18;5.10;;;9.90;99.10;;;;;;5032034;28;20021;-52
2024/03/03 06:28:44;;;;;;;11.10;5.32;;;9.90;98.90;;;;;;5032019;28;20025;-53
2024/03/03 06:31:10;;;;;;;10.95;4.75;;;9.90;98.90;;;;;;5066434;28;20028;-53
2024/03/03 06:33:36;;;;;;;5.55;4.40;;;9.80;98.80;;;;;;5066407;28;20044;-53
2024/03/03 06:36:02;;;;;;;9.32;5.32;;;9.80;98.80;;;;;;5031849;28;20025;-53
2024/03/03 06:38:28;;;;;;;7.00;4.45;;;9.80;98.90;;;;;;5031487;28;20083;-53
2024/03/03 06:40:54;;;;;;;8.45;5.00;;;9.80;98.80;;;;;;5047936;28;20025;-53
2024/03/03 06:43:22;;;;;;;7.30;4.90;;;9.80;98.90;;;;;;5047513;28;20033;-53
2024/03/03 06:45:47;;;;;;;7.82;5.47;;;9.80;98.80;;;;;;5047453;28;20119;-53
2024/03/03 06:48:13;;;;;;;9.10;5.10;;;9.80;98.80;;;;;;5047448;28;20040;-52
2024/03/03 06:50:40;;;;;;;8.93;5.35;;;9.80;98.90;;;;;;5030976;28;20068;-53
2024/03/03 06:53:06;;;;;;;8.93;5.18;;;9.80;98.90;;;;;;5047425;28;20045;-53
2024/03/03 06:55:31;;;;;;;11.27;4.50;;;9.80;98.80;;;;;;5065230;28;20033;-53
2024/03/03 06:57:57;;;;;;;9.63;4.95;;;9.80;98.70;;;;;;5047499;28;20099;-53
2024/03/03 07:00:22;;;;;;;6.28;4.50;;;9.80;98.70;;;;;;5065188;28;20036;-53
2024/03/03 07:03:04;;;;;;;8.45;4.63;;;9.80;98.70;;;;;;5065110;28;20471;-53
2024/03/03 07:05:30;;;;;;;8.25;4.60;;;9.80;98.80;;;;;;5049787;28;20025;-53
2024/03/03 07:07:55;;;;;;;9.52;4.93;;;9.80;98.80;;;;;;5030489;28;20441;-53
2024/03/03 07:10:21;;;;;;;7.78;5.28;;;9.70;98.80;;;;;;5065071;28;20108;-53
2024/03/03 07:12:46;;;;;;;8.75;4.68;;;9.70;98.80;;;;;;5049386;28;20104;-53
2024/03/03 07:15:12;;;;;;;8.57;5.10;;;9.70;98.90;;;;;;5050668;28;20021;-53
2024/03/03 07:17:37;;;;;;;10.48;4.72;;;9.70;98.90;;;;;;5050543;28;20163;-53
2024/03/03 07:20:05;;;;;;;7.75;5.05;;;9.70;98.90;;;;;;5050656;28;20095;-53
2024/03/03 07:22:34;;;;;;;7.30;4.80;;;9.70;98.90;;;;;;5050447;28;20025;-53
2024/03/03 07:25:03;;;;;;;8.48;4.57;;;9.70;98.90;;;;;;5050863;28;20102;-53
2024/03/03 07:27:32;;;;;;;6.63;5.07;;;9.70;98.90;;;;;;5034523;28;20033;-52
2024/03/03 07:29:58;;;;;;;9.25;5.15;;;9.70;98.90;;;;;;5017965;28;20078;-53
2024/03/03 07:32:23;;;;;;;8.20;5.40;;;9.70;98.80;;;;;;5050487;28;20083;-53
2024/03/03 07:34:50;;;;;;;7.07;4.78;;;9.70;98.80;;;;;;5033879;28;20379;-53
2024/03/03 07:37:16;;;;;;;6.88;5.03;;;9.70;98.80;;;;;;4996051;28;1117563;-53
2024/03/03 07:39:42;;;;;;;7.00;4.93;;;9.70;98.80;;;;;;5035127;28;20451;-53
2024/03/03 07:42:08;;;;;;;6.15;4.47;;;9.80;99.10;;;;;;5034999;28;20086;-53
2024/03/03 07:44:34;;;;;;;7.32;4.90;;;9.70;98.80;;;;;;5051390;28;20053;-53
2024/03/03 07:46:59;;;;;;;7.80;4.93;;;9.70;98.80;;;;;;5069197;28;20029;-53
2024/03/03 07:49:25;;;;;;;7.10;4.93;;;9.70;98.80;;;;;;5034787;28;20375;-53
2024/03/03 07:51:50;;;;;;;10.48;5.35;;;9.70;98.80;;;;;;5051433;28;20088;-53
2024/03/03 07:54:16;;;;;;;5.93;4.53;;;9.70;98.80;;;;;;5051148;28;20025;-53
2024/03/03 07:56:42;;;;;;;8.23;5.25;;;9.80;98.80;;;;;;5051347;28;20041;-53
2024/03/03 07:59:08;;;;;;;9.98;5.35;;;9.80;98.70;;;;;;5068976;28;20029;-53
2024/03/03 08:01:35;;;;;;;8.77;5.40;;;9.70;98.70;;;;;;5050989;28;20040;-53
2024/03/03 08:04:03;;;;;;;7.78;5.38;;;9.80;98.70;;;;;;5068815;28;20055;-53
2024/03/03 08:06:29;;;;;;;7.03;4.85;;;9.80;98.60;;;;;;5068985;28;20025;-53
2024/03/03 08:08:55;;;;;;;8.45;4.75;;;9.80;98.60;;;;;;5050934;28;20025;-53
2024/03/03 08:11:20;;;;;;;9.20;4.97;;;9.80;98.50;;;;;;5050939;28;20021;-53
2024/03/03 08:13:46;;;;;;;8.93;5.07;;;9.80;98.50;;;;;;5034238;28;20029;-53
2024/03/03 08:16:11;;;;;;;7.03;4.97;;;9.80;98.50;;;;;;5050870;28;20044;-53
2024/03/03 08:18:37;;;;;;;6.75;4.68;;;9.80;98.50;;;;;;5050532;28;20041;-52
2024/03/03 08:21:03;;;;;;;8.23;4.80;;;9.80;98.50;;;;;;5034134;28;20029;-53
2024/03/03 08:23:28;;;;;;;5.82;4.88;;;9.80;98.50;;;;;;5050241;28;20379;-53
2024/03/03 08:25:54;;;;;;;5.50;4.32;;;9.90;98.50;;;;;;5050727;28;20020;-53
2024/03/03 08:28:20;;;;;;;6.70;4.38;;;9.90;98.40;;;;;;5050769;28;20426;-53
2024/03/03 08:30:45;;;;;;;6.95;4.40;;;9.80;98.40;;;;;;5050689;28;20029;-53
2024/03/03 08:33:11;;;;;;;6.22;4.60;;;9.90;98.40;;;;;;5050541;28;20025;-53
2024/03/03 08:35:36;;;;;;;8.43;4.88;;;9.80;98.30;;;;;;5068258;28;20474;-53
2024/03/03 08:38:02;;;;;;;6.43;4.68;;;9.90;98.40;;;;;;5050507;28;20106;-53
2024/03/03 08:40:28;;;;;;;6.93;4.88;;;9.90;98.40;;;;;;5050398;28;20037;-53
2024/03/03 08:42:54;;;;;;;7.78;4.82;;;9.90;98.40;;;;;;5050760;28;20037;-53
2024/03/03 08:45:20;;;;;;;7.90;5.07;;;9.90;98.40;;;;;;5050481;28;20025;-51
2024/03/03 08:47:45;;;;;;;7.40;4.97;;;9.90;98.40;;;;;;5033848;28;20033;-52
2024/03/03 08:50:11;;;;;;;6.72;5.00;;;9.90;98.40;;;;;;5049964;28;20031;-52
2024/03/03 08:52:37;;;;;;;6.63;4.78;;;9.90;98.40;;;;;;5050562;28;20522;-52
2024/03/03 08:55:05;;;;;;;6.28;5.00;;;9.90;98.40;;;;;;5049977;28;20038;-52
2024/03/03 08:57:31;;;;;;;7.15;5.38;;;9.90;98.30;;;;;;5067936;28;20037;-52
2024/03/03 08:59:57;;;;;;;6.57;4.70;;;9.90;98.30;;;;;;5067726;28;20043;-52
2024/03/03 09:02:23;;;;;;;9.60;5.07;;;10.00;98.40;;;;;;5050367;28;20036;-52
2024/03/03 09:04:49;;;;;;;11.52;5.35;;;10.00;98.40;;;;;;5033605;28;20029;-52
2024/03/03 09:07:14;;;;;;;10.75;5.25;;;10.00;98.50;;;;;;5030628;28;20040;-55
2024/03/03 09:09:40;;;;;;;12.13;5.45;;;10.00;98.50;;;;;;5067441;28;20032;-52
2024/03/03 09:12:06;;;;;;;7.97;5.30;;;10.10;98.50;;;;;;5067501;28;20025;-52
2024/03/03 09:14:33;;;;;;;9.32;5.45;;;10.10;98.50;;;;;;5049002;28;20048;-52
2024/03/03 09:17:01;;;;;;;9.65;5.38;;;10.10;98.50;;;;;;5068081;28;20041;-52
2024/03/03 09:19:27;;;;;;;8.25;5.15;;;10.10;98.50;;;;;;5065340;28;20033;-52
2024/03/03 09:21:52;;;;;;;15.32;5.85;;;10.20;98.70;;;;;;5049306;28;20035;-52
2024/03/03 09:24:19;;;;;;;12.73;5.78;;;10.20;98.50;;;;;;5067076;28;20049;-52
2024/03/03 09:26:46;;;;;;;8.05;5.68;;;10.20;98.40;;;;;;5066145;28;20037;-52
2024/03/03 09:29:12;;;;;;;8.93;5.72;;;10.20;98.40;;;;;;5031215;28;20036;-52
2024/03/03 09:31:38;;;;;;;11.32;6.38;;;10.30;98.50;;;;;;5048097;28;20238;-52
2024/03/03 09:34:04;;;;;;;26.63;7.63;;;10.30;98.60;;;;;;5064645;28;20029;-52
2024/03/03 09:36:30;;;;;;;29.80;7.65;;;10.30;98.80;;;;;;5048308;28;20106;-52
2024/03/03 09:38:55;;;;;;;36.38;8.13;;;10.40;98.60;;;;;;5063497;28;20033;-52
2024/03/03 09:41:21;;;;;;;34.45;8.18;;;10.40;98.70;;;;;;5032055;28;20036;-52
2024/03/03 09:43:52;;;;;;;31.02;8.27;;;10.40;98.80;;;;;;5048580;28;20512;-51
2024/03/03 09:46:19;;;;;;;42.92;8.45;;;10.50;98.80;;;;;;5032472;28;20021;-52
2024/03/03 09:48:45;;;;;;;23.02;7.43;;;10.40;98.60;;;;;;5046758;28;20033;-52
2024/03/03 09:51:11;;;;;;;62.38;10.32;;;10.50;98.60;;;;;;5031906;28;20043;-52
2024/03/03 09:53:37;;;;;;;29.05;9.07;;;10.60;98.60;;;;;;5047389;28;20033;-52
2024/03/03 09:56:05;;;;;;;59.72;9.75;;;10.50;98.70;;;;;;5028007;28;20030;-52
2024/03/03 09:58:30;;;;;;;57.15;10.38;;;10.60;98.70;;;;;;5032468;28;20039;-52
2024/03/03 10:00:56;;;;;;;60.05;10.30;;;10.70;98.90;;;;;;5020152;28;20065;-52
2024/03/03 10:03:22;;;;;;;59.70;10.75;;;10.70;99.20;;;;;;5018555;28;20033;-52
2024/03/03 10:05:47;;;;;;;55.50;11.15;;;10.70;98.90;;;;;;5029283;28;20290;-52
2024/03/03 10:08:13;;;;;;;74.13;12.88;;;10.70;98.80;;;;;;5031333;28;20052;-52
2024/03/03 10:10:42;;;;;;;112.45;14.60;;;10.80;98.80;;;;;;5029746;28;20052;-52
2024/03/03 10:13:08;;;;;;;76.38;10.65;;;10.80;98.80;;;;;;5047680;28;20045;-52
2024/03/03 10:15:34;;;;;;;101.82;14.15;;;10.80;98.80;;;;;;5031266;28;20052;-52
2024/03/03 10:18:02;;;;;;;133.40;17.30;;;10.90;98.70;;;;;;5064383;28;20112;-52
2024/03/03 10:20:29;;;;;;;93.40;15.48;;;10.90;98.80;;;;;;5031621;28;20036;-52
2024/03/03 10:22:55;;;;;;;107.90;15.30;;;11.00;98.80;;;;;;5045449;28;20035;-52
2024/03/03 10:25:22;;;;;;;83.95;13.10;;;11.00;98.90;;;;;;5028815;28;20025;-52
2024/03/03 10:27:48;;;;;;;95.50;16.17;;;11.00;98.90;;;;;;5037783;28;20543;-52
2024/03/03 10:30:17;;;;;;;103.60;15.82;;;11.10;98.90;;;;;;5025337;28;20025;-52
2024/03/03 10:32:44;;;;;;;137.85;16.95;;;11.10;98.90;;;;;;5030959;28;20036;-52
2024/03/03 10:35:11;;;;;;;107.90;15.63;;;11.20;98.90;;;;;;5043034;28;20562;-52
2024/03/03 10:37:52;;;;;;;145.07;17.55;;;11.20;98.90;;;;;;5030807;28;20025;-52
2024/03/03 10:40:17;;;;;;;115.45;16.27;;;11.20;99.10;;;;;;5046502;28;20025;-52
2024/03/03 10:42:43;;;;;;;143.93;18.17;;;11.20;99.00;;;;;;5028382;28;20043;-51
2024/03/03 10:45:09;;;;;;;120.75;17.52;;;11.30;98.90;;;;;;5027961;28;20044;-52
2024/03/03 10:47:35;;;;;;;133.90;19.77;;;11.30;99.00;;;;;;5017322;28;20500;-52
2024/03/03 10:50:02;;;;;;;194.48;21.95;;;11.40;99.20;;;;;;5048804;28;20155;-52
2024/03/03 10:52:28;;;;;;;143.48;19.27;;;11.40;99.50;;;;;;5050694;28;20017;-52
2024/03/03 10:54:53;;;;;;;140.05;21.05;;;11.50;99.50;;;;;;5034444;28;20033;-52
2024/03/03 10:57:20;;;;;;;128.30;19.90;;;11.50;99.20;;;;;;5036705;28;20056;-52
2024/03/03 10:59:45;;;;;;;142.32;20.23;;;11.50;99.10;;;;;;5037359;28;20116;-52
2024/03/03 11:02:12;;;;;;;160.35;20.23;;;11.60;99.00;;;;;;5024769;28;20100;-52
2024/03/03 11:04:38;;;;;;;150.95;20.33;;;11.60;98.90;;;;;;5019764;28;20048;-52
2024/03/03 11:07:04;;;;;;;184.73;22.40;;;11.70;98.90;;;;;;5053165;28;20044;-52
2024/03/03 11:09:30;;;;;;;142.35;20.65;;;11.60;98.70;;;;;;5017567;28;20108;-52
2024/03/03 11:12:00;;;;;;;147.48;21.70;;;11.70;98.70;;;;;;5052642;28;20063;-52
2024/03/03 11:14:38;;;;;;;106.78;17.30;;;11.70;98.60;;;;;;5035455;28;20101;-52
2024/03/03 11:17:04;;;;;;;67.28;13.77;;;11.70;98.30;;;;;;5016680;28;20061;-52
2024/03/03 11:19:38;;;;;;;96.57;14.73;;;11.70;97.70;;;;;;5035072;28;20032;-52
2024/03/03 11:22:05;;;;;;;186.95;22.48;;;11.80;97.60;;;;;;5053377;28;20033;-52
2024/03/03 11:24:31;;;;;;;189.13;24.75;;;11.80;97.70;;;;;;5051017;28;20025;-52
2024/03/03 11:27:15;;;;;;;220.95;29.05;;;11.90;98.00;;;;;;5036829;28;20041;-52
2024/03/03 11:29:45;;;;;;;222.45;29.73;;;11.90;98.30;;;;;;5052728;28;20029;-52
2024/03/03 11:32:11;;;;;;;190.80;23.98;;;12.00;98.40;;;;;;5069950;28;20031;-52
2024/03/03 11:34:37;;;;;;;189.95;24.05;;;12.00;98.20;;;;;;5053648;28;20432;-52
2024/03/03 11:37:03;;;;;;;167.80;24.77;;;12.10;98.10;;;;;;5054616;28;20044;-52
2024/03/03 11:39:28;;;;;;;215.07;27.33;;;12.10;98.00;;;;;;5017645;28;20040;-52
2024/03/03 11:41:54;;;;;;;201.45;25.35;;;12.20;97.90;;;;;;5036416;28;20045;-52
2024/03/03 11:44:35;;;;;;;257.83;31.40;;;12.20;97.70;;;;;;5033503;28;20483;-52
2024/03/03 11:47:02;;;;;;;271.98;30.48;;;12.30;97.40;;;;;;5051678;28;20052;-52
2024/03/03 11:49:28;;;;;;;253.68;29.13;;;12.30;97.40;;;;;;5018951;28;20025;-52
2024/03/03 11:51:54;;;;;;;268.30;29.15;;;12.40;97.40;;;;;;5037271;28;20047;-52
2024/03/03 11:54:36;;;;;;;229.07;26.73;;;12.40;97.40;;;;;;5053779;28;20088;-51
2024/03/03 11:57:02;;;;;;;244.38;29.60;;;12.40;97.30;;;;;;5041262;28;20041;-52
2024/03/03 11:59:31;;;;;;;238.90;28.80;;;12.50;97.40;;;;;;5029000;28;20029;-51
2024/03/03 12:01:58;;;;;;;292.98;32.78;;;12.50;97.10;;;;;;5039589;28;20110;-51
2024/03/03 12:04:24;;;;;;;260.42;30.55;;;12.60;97.10;;;;;;5052493;28;20016;-51
2024/03/03 12:06:49;;;;;;;243.82;29.42;;;12.60;97.10;;;;;;5071911;28;20075;-51
2024/03/03 12:09:19;;;;;;;267.35;31.88;;;12.60;97.10;;;;;;5047529;28;20037;-51
2024/03/03 12:11:48;;;;;;;281.15;32.75;;;12.70;97.00;;;;;;5044154;28;20029;-51
2024/03/03 12:14:13;;;;;;;238.23;29.40;;;12.70;97.00;;;;;;5015298;28;20052;-51
2024/03/03 12:16:39;;;;;;;269.98;32.47;;;12.80;97.00;;;;;;5040230;28;20037;-51
2024/03/03 12:19:04;;;;;;;276.65;34.17;;;12.80;96.90;;;;;;5042267;28;20029;-51
2024/03/03 12:21:30;;;;;;;279.88;33.45;;;12.80;97.00;;;;;;5067334;28;20044;-51
2024/03/03 12:23:56;;;;;;;258.02;33.30;;;12.90;97.00;;;;;;5020295;28;20042;-51
2024/03/03 12:26:22;;;;;;;280.83;33.53;;;12.90;97.10;;;;;;5040369;28;20021;-51
2024/03/03 12:28:49;;;;;;;292.58;29.27;;;13.00;97.00;;;;;;5033160;28;20021;-51
2024/03/03 12:31:14;;;;;;;251.43;28.90;;;13.00;97.00;;;;;;5049902;28;20032;-52
2024/03/03 12:33:42;;;;;;;183.85;23.85;;;13.10;96.80;;;;;;5046598;28;20037;-51